createdAt,value
2023-12-12T00:00:58.895Z,94743.00
2023-12-12T00:01:58.852Z,94742.00
2023-12-12T00:02:58.805Z,94744.00
2023-12-12T00:03:58.754Z,94747.00
2023-12-12T00:04:58.615Z,94754.00
2023-12-12T00:05:58.675Z,94767.00
2023-12-12T00:06:58.605Z,94781.00
2023-12-12T00:07:58.434Z,94794.00
2023-12-12T00:08:58.368Z,94803.00
2023-12-12T00:09:58.327Z,94808.00
2023-12-12T00:10:58.276Z,94809.00
2023-12-12T00:11:58.196Z,94809.00
2023-12-12T00:12:58.130Z,94806.00
2023-12-12T00:13:58.067Z,94799.00
2023-12-12T00:14:58.009Z,94797.00
2023-12-12T00:15:58.014Z,94800.00
2023-12-12T00:16:57.885Z,94805.00
2023-12-12T00:17:57.863Z,94804.00
2023-12-12T00:18:57.863Z,94796.00
2023-12-12T00:19:57.705Z,94791.00
2023-12-12T00:20:57.633Z,94796.00
2023-12-12T00:21:57.589Z,94803.00
2023-12-12T00:22:57.526Z,94804.00
2023-12-12T00:23:57.440Z,94805.00
2023-12-12T00:24:57.390Z,94805.00
2023-12-12T00:25:57.318Z,94804.00
2023-12-12T00:26:57.286Z,94801.00
2023-12-12T00:27:57.302Z,94787.00
2023-12-12T00:28:57.156Z,94789.00
2023-12-12T00:29:57.064Z,94783.00
2023-12-12T00:30:57.055Z,94779.00
2023-12-12T00:31:56.936Z,94781.00
2023-12-12T00:32:56.904Z,94790.00
2023-12-12T00:33:56.923Z,94781.00
2023-12-12T00:34:56.817Z,94769.00
2023-12-12T00:35:56.727Z,94762.00
2023-12-12T00:36:56.755Z,94767.00
2023-12-12T00:37:56.631Z,94776.00
2023-12-12T00:38:56.547Z,94771.00
2023-12-12T00:39:56.505Z,94767.00
2023-12-12T00:40:56.419Z,94760.00
2023-12-12T00:41:56.354Z,94753.00
2023-12-12T00:42:56.370Z,94747.00
2023-12-12T00:43:56.238Z,94739.00
2023-12-12T00:44:56.185Z,94733.00
2023-12-12T00:45:56.133Z,94730.00
2023-12-12T00:46:56.093Z,94726.00
2023-12-12T00:47:56.086Z,94723.00
2023-12-12T00:48:56.118Z,94722.00
2023-12-12T00:49:55.972Z,94729.00
2023-12-12T00:50:55.864Z,94736.00
2023-12-12T00:52:05.834Z,94747.00
2023-12-12T00:52:55.753Z,94757.00
2023-12-12T00:53:55.699Z,94757.00
2023-12-12T00:54:55.647Z,94751.00
2023-12-12T00:55:55.566Z,94747.00
2023-12-12T00:56:55.576Z,94752.00
2023-12-12T00:57:55.490Z,94749.00
2023-12-12T00:58:55.399Z,94751.00
2023-12-12T00:59:55.357Z,94751.00
2023-12-12T01:00:55.390Z,94750.00
2023-12-12T01:01:55.266Z,94754.00
2023-12-12T01:02:55.178Z,94752.00
2023-12-12T01:03:55.191Z,94757.00
2023-12-12T01:04:55.153Z,94761.00
2023-12-12T01:05:55.085Z,94760.00
2023-12-12T01:06:54.937Z,94762.00
2023-12-12T01:07:54.909Z,94764.00
2023-12-12T01:08:54.829Z,94766.00
2023-12-12T01:09:54.782Z,94767.00
2023-12-12T01:10:54.712Z,94765.00
2023-12-12T01:11:54.675Z,94766.00
2023-12-12T01:12:54.655Z,94766.00
2023-12-12T01:13:54.536Z,94769.00
2023-12-12T01:14:54.458Z,94774.00
2023-12-12T01:15:54.426Z,94779.00
2023-12-12T01:16:54.354Z,94784.00
2023-12-12T01:17:54.435Z,94787.00
2023-12-12T01:18:54.307Z,94794.00
2023-12-12T01:19:54.242Z,94796.00
2023-12-12T01:20:54.122Z,94797.00
2023-12-12T01:21:54.128Z,94797.00
2023-12-12T01:22:54.032Z,94800.00
2023-12-12T01:23:53.994Z,94803.00
2023-12-12T01:24:53.955Z,94808.00
2023-12-12T01:25:53.857Z,94811.00
2023-12-12T01:26:53.797Z,94813.00
2023-12-12T01:27:53.785Z,94812.00
2023-12-12T01:28:53.667Z,94808.00
2023-12-12T01:29:53.609Z,94804.00
2023-12-12T01:30:53.590Z,94803.00
2023-12-12T01:31:53.521Z,94801.00
2023-12-12T01:32:53.492Z,94802.00
2023-12-12T01:33:53.426Z,94797.00
2023-12-12T01:34:53.405Z,94796.00
2023-12-12T01:35:53.287Z,94798.00
2023-12-12T01:36:53.263Z,94803.00
2023-12-12T01:37:53.178Z,94807.00
2023-12-12T01:38:53.083Z,94812.00
2023-12-12T01:39:53.064Z,94810.00
2023-12-12T01:40:52.984Z,94813.00
2023-12-12T01:41:52.970Z,94817.00
2023-12-12T01:42:52.909Z,94820.00
2023-12-12T01:43:52.788Z,94822.00
2023-12-12T01:44:52.714Z,94823.00
2023-12-12T01:45:52.673Z,94825.00
2023-12-12T01:46:52.580Z,94828.00
2023-12-12T01:47:52.606Z,94833.00
2023-12-12T01:48:52.585Z,94830.00
2023-12-12T01:49:52.448Z,94827.00
2023-12-12T01:50:52.332Z,94824.00
2023-12-12T01:51:52.376Z,94825.00
2023-12-12T01:52:52.217Z,94829.00
2023-12-12T01:53:52.173Z,94830.00
2023-12-12T01:54:52.167Z,94836.00
2023-12-12T01:55:52.019Z,94834.00
2023-12-12T01:56:51.986Z,94832.00
2023-12-12T01:57:52.031Z,94827.00
2023-12-12T01:58:51.878Z,94823.00
2023-12-12T01:59:51.803Z,94825.00
2023-12-12T02:00:51.791Z,94822.00
2023-12-12T02:01:51.762Z,94816.00
2023-12-12T02:02:51.609Z,94809.00
2023-12-12T02:03:51.636Z,94799.00
2023-12-12T02:04:51.639Z,94793.00
2023-12-12T02:05:51.587Z,94786.00
2023-12-12T02:06:51.438Z,94785.00
2023-12-12T02:07:51.326Z,94790.00
2023-12-12T02:08:51.257Z,94795.00
2023-12-12T02:09:51.205Z,94799.00
2023-12-12T02:10:51.144Z,94799.00
2023-12-12T02:11:51.054Z,94801.00
2023-12-12T02:12:51.019Z,94801.00
2023-12-12T02:13:50.975Z,94804.00
2023-12-12T02:14:50.921Z,94801.00
2023-12-12T02:15:50.868Z,94800.00
2023-12-12T02:16:50.777Z,94799.00
2023-12-12T02:17:50.800Z,94798.00
2023-12-12T02:18:50.758Z,94794.00
2023-12-12T02:19:50.678Z,94789.00
2023-12-12T02:20:50.560Z,94785.00
2023-12-12T02:21:50.548Z,94783.00
2023-12-12T02:22:50.431Z,94782.00
2023-12-12T02:23:50.386Z,94776.00
2023-12-12T02:24:50.354Z,94772.00
2023-12-12T02:25:50.302Z,94775.00
2023-12-12T02:26:50.223Z,94773.00
2023-12-12T02:27:50.107Z,94769.00
2023-12-12T02:28:50.044Z,94767.00
2023-12-12T02:29:49.972Z,94764.00
2023-12-12T02:30:49.988Z,94767.00
2023-12-12T02:31:49.862Z,94767.00
2023-12-12T02:32:49.930Z,94767.00
2023-12-12T02:33:49.794Z,94765.00
2023-12-12T02:34:49.682Z,94769.00
2023-12-12T02:35:49.629Z,94771.00
2023-12-12T02:36:49.630Z,94771.00
2023-12-12T02:37:49.488Z,94773.00
2023-12-12T02:38:49.447Z,94775.00
2023-12-12T02:39:49.359Z,94776.00
2023-12-12T02:40:49.277Z,94777.00
2023-12-12T02:41:49.239Z,94780.00
2023-12-12T02:42:49.162Z,94784.00
2023-12-12T02:43:49.116Z,94783.00
2023-12-12T02:44:49.017Z,94782.00
2023-12-12T02:45:48.972Z,94780.00
2023-12-12T02:46:48.935Z,94779.00
2023-12-12T02:47:48.990Z,94782.00
2023-12-12T02:48:48.836Z,94779.00
2023-12-12T02:49:48.847Z,94778.00
2023-12-12T02:50:48.639Z,94778.00
2023-12-12T02:51:48.591Z,94780.00
2023-12-12T02:52:48.531Z,94783.00
2023-12-12T02:53:48.483Z,94785.00
2023-12-12T02:54:48.393Z,94790.00
2023-12-12T02:55:48.337Z,94794.00
2023-12-12T02:56:48.284Z,94797.00
2023-12-12T02:57:48.192Z,94796.00
2023-12-12T02:58:48.153Z,94797.00
2023-12-12T02:59:48.046Z,94795.00
2023-12-12T03:00:48.041Z,94793.00
2023-12-12T03:01:47.988Z,94791.00
2023-12-12T03:02:47.864Z,94792.00
2023-12-12T03:03:47.829Z,94791.00
2023-12-12T03:04:47.867Z,94791.00
2023-12-12T03:05:47.764Z,94791.00
2023-12-12T03:06:47.644Z,94793.00
2023-12-12T03:07:47.584Z,94794.00
2023-12-12T03:08:47.495Z,94789.00
2023-12-12T03:09:47.443Z,94785.00
2023-12-12T03:10:47.384Z,94785.00
2023-12-12T03:11:47.396Z,94780.00
2023-12-12T03:12:47.323Z,94779.00
2023-12-12T03:13:47.256Z,94782.00
2023-12-12T03:14:47.252Z,94785.00
2023-12-12T03:15:47.233Z,94792.00
2023-12-12T03:16:47.201Z,94795.00
2023-12-12T03:17:47.296Z,94796.00
2023-12-12T03:18:47.128Z,94795.00
2023-12-12T03:19:47.052Z,94796.00
2023-12-12T03:20:46.919Z,94794.00
2023-12-12T03:21:46.896Z,94794.00
2023-12-12T03:22:46.802Z,94796.00
2023-12-12T03:23:46.758Z,94796.00
2023-12-12T03:24:46.727Z,94792.00
2023-12-12T03:25:46.665Z,94792.00
2023-12-12T03:26:46.630Z,94793.00
2023-12-12T03:27:46.577Z,94792.00
2023-12-12T03:28:46.540Z,94791.00
2023-12-12T03:29:46.516Z,94794.00
2023-12-12T03:30:46.431Z,94789.00
2023-12-12T03:31:46.420Z,94788.00
2023-12-12T03:32:46.444Z,94785.00
2023-12-12T03:33:46.345Z,94780.00
2023-12-12T03:34:46.330Z,94774.00
2023-12-12T03:35:46.221Z,94771.00
2023-12-12T03:36:46.182Z,94769.00
2023-12-12T03:37:46.161Z,94770.00
2023-12-12T03:38:46.061Z,94771.00
2023-12-12T03:39:46.012Z,94773.00
2023-12-12T03:40:45.936Z,94774.00
2023-12-12T03:41:45.957Z,94775.00
2023-12-12T03:42:45.877Z,94781.00
2023-12-12T03:43:45.894Z,94780.00
2023-12-12T03:44:45.793Z,94782.00
2023-12-12T03:45:45.774Z,94781.00
2023-12-12T03:46:45.753Z,94783.00
2023-12-12T03:47:45.659Z,94783.00
2023-12-12T03:48:45.640Z,94782.00
2023-12-12T03:49:45.688Z,94779.00
2023-12-12T03:50:45.523Z,94780.00
2023-12-12T03:51:45.458Z,94784.00
2023-12-12T03:52:45.399Z,94789.00
2023-12-12T03:53:45.339Z,94791.00
2023-12-12T03:54:45.351Z,94790.00
2023-12-12T03:55:45.247Z,94787.00
2023-12-12T03:56:45.236Z,94783.00
2023-12-12T03:57:45.195Z,94778.00
2023-12-12T03:58:45.100Z,94773.00
2023-12-12T03:59:45.139Z,94776.00
2023-12-12T04:00:45.046Z,94775.00
2023-12-12T04:01:45.156Z,94779.00
2023-12-12T04:02:44.980Z,94777.00
2023-12-12T04:03:44.887Z,94777.00
2023-12-12T04:04:44.896Z,94777.00
2023-12-12T04:05:44.860Z,94777.00
2023-12-12T04:06:44.778Z,94774.00
2023-12-12T04:07:44.769Z,94773.00
2023-12-12T04:08:44.660Z,94771.00
2023-12-12T04:09:44.592Z,94767.00
2023-12-12T04:10:44.576Z,94765.00
2023-12-12T04:11:44.504Z,94760.00
2023-12-12T04:12:44.446Z,94753.00
2023-12-12T04:13:44.428Z,94749.00
2023-12-12T04:14:44.376Z,94750.00
2023-12-12T04:15:44.290Z,94754.00
2023-12-12T04:16:44.330Z,94758.00
2023-12-12T04:17:44.402Z,94754.00
2023-12-12T04:18:44.280Z,94755.00
2023-12-12T04:19:44.203Z,94758.00
2023-12-12T04:20:44.103Z,94762.00
2023-12-12T04:21:44.054Z,94767.00
2023-12-12T04:22:44.030Z,94765.00
2023-12-12T04:23:44.298Z,94760.00
2023-12-12T04:24:43.980Z,94757.00
2023-12-12T04:25:44.037Z,94756.00
2023-12-12T04:26:43.926Z,94757.00
2023-12-12T04:27:43.816Z,94759.00
2023-12-12T04:28:43.764Z,94761.00
2023-12-12T04:29:43.737Z,94763.00
2023-12-12T04:30:43.647Z,94761.00
2023-12-12T04:31:43.665Z,94756.00
2023-12-12T04:32:43.637Z,94752.00
2023-12-12T04:33:43.595Z,94752.00
2023-12-12T04:34:43.575Z,94747.00
2023-12-12T04:35:43.464Z,94746.00
2023-12-12T04:36:43.421Z,94749.00
2023-12-12T04:37:43.379Z,94748.00
2023-12-12T04:38:43.351Z,94750.00
2023-12-12T04:39:43.286Z,94752.00
2023-12-12T04:40:43.296Z,94749.00
2023-12-12T04:41:43.201Z,94746.00
2023-12-12T04:42:43.155Z,94746.00
2023-12-12T04:43:43.131Z,94748.00
2023-12-12T04:44:43.065Z,94749.00
2023-12-12T04:45:43.007Z,94748.00
2023-12-12T04:46:43.425Z,94746.00
2023-12-12T04:47:42.964Z,94743.00
2023-12-12T04:48:42.953Z,94745.00
2023-12-12T04:49:42.931Z,94749.00
2023-12-12T04:50:42.741Z,94749.00
2023-12-12T04:51:42.735Z,94747.00
2023-12-12T04:52:50.094Z,94747.00
2023-12-12T04:53:50.095Z,94746.00
2023-12-12T04:54:50.077Z,94746.00
2023-12-12T04:55:50.085Z,94742.00
2023-12-12T04:56:50.054Z,94743.00
2023-12-12T04:57:50.028Z,94742.00
2023-12-12T04:58:50.054Z,94742.00
2023-12-12T04:59:50.030Z,94741.00
2023-12-12T05:00:50.020Z,94737.00
2023-12-12T05:01:50.055Z,94735.00
2023-12-12T05:02:50.029Z,94731.00
2023-12-12T05:03:50.023Z,94732.00
2023-12-12T05:04:49.969Z,94732.00
2023-12-12T05:05:50.124Z,94734.00
2023-12-12T05:06:50.004Z,94739.00
2023-12-12T05:07:50.010Z,94740.00
2023-12-12T05:08:49.928Z,94739.00
2023-12-12T05:09:49.922Z,94738.00
2023-12-12T05:10:49.930Z,94739.00
2023-12-12T05:11:49.879Z,94742.00
2023-12-12T05:12:49.939Z,94748.00
2023-12-12T05:13:49.991Z,94749.00
2023-12-12T05:14:49.849Z,94751.00
2023-12-12T05:15:49.902Z,94752.00
2023-12-12T05:16:57.993Z,94753.00
2023-12-12T05:17:50.953Z,94755.00
2023-12-12T05:18:49.890Z,94755.00
2023-12-12T05:19:49.893Z,94762.00
2023-12-12T05:20:49.788Z,94760.00
2023-12-12T05:21:49.779Z,94764.00
2023-12-12T05:22:49.786Z,94761.00
2023-12-12T05:23:49.765Z,94760.00
2023-12-12T05:24:49.761Z,94761.00
2023-12-12T05:25:49.766Z,94761.00
2023-12-12T05:26:49.712Z,94763.00
2023-12-12T05:27:49.725Z,94764.00
2023-12-12T05:28:49.694Z,94766.00
2023-12-12T05:29:49.736Z,94770.00
2023-12-12T05:30:49.803Z,94771.00
2023-12-12T05:31:49.838Z,94775.00
2023-12-12T05:32:49.827Z,94777.00
2023-12-12T05:33:49.967Z,94781.00
2023-12-12T05:34:49.949Z,94780.00
2023-12-12T05:35:49.875Z,94779.00
2023-12-12T05:36:49.949Z,94775.00
2023-12-12T05:37:50.003Z,94777.00
2023-12-12T05:38:50.020Z,94779.00
2023-12-12T05:39:50.033Z,94781.00
2023-12-12T05:40:50.061Z,94779.00
2023-12-12T05:41:50.092Z,94776.00
2023-12-12T05:42:50.159Z,94772.00
2023-12-12T05:43:50.129Z,94769.00
2023-12-12T05:44:50.294Z,94764.00
2023-12-12T05:45:50.243Z,94762.00
2023-12-12T05:46:50.258Z,94758.00
2023-12-12T05:47:50.332Z,94765.00
2023-12-12T05:48:50.340Z,94761.00
2023-12-12T05:49:50.404Z,94760.00
2023-12-12T05:50:50.316Z,94758.00
2023-12-12T05:51:50.349Z,94752.00
2023-12-12T05:52:50.438Z,94749.00
2023-12-12T05:53:50.437Z,94751.00
2023-12-12T05:54:50.500Z,94749.00
2023-12-12T05:55:50.430Z,94749.00
2023-12-12T05:56:50.496Z,94746.00
2023-12-12T05:57:50.489Z,94749.00
2023-12-12T05:58:50.503Z,94748.00
2023-12-12T05:59:50.529Z,94749.00
2023-12-12T06:00:50.584Z,94750.00
2023-12-12T06:01:50.615Z,94754.00
2023-12-12T06:02:50.569Z,94756.00
2023-12-12T06:03:50.706Z,94758.00
2023-12-12T06:04:50.713Z,94757.00
2023-12-12T06:05:50.646Z,94753.00
2023-12-12T06:06:50.771Z,94751.00
2023-12-12T06:07:50.700Z,94749.00
2023-12-12T06:08:50.674Z,94750.00
2023-12-12T06:09:50.720Z,94755.00
2023-12-12T06:10:50.786Z,94760.00
2023-12-12T06:11:50.757Z,94762.00
2023-12-12T06:12:50.715Z,94759.00
2023-12-12T06:13:50.761Z,94757.00
2023-12-12T06:14:50.741Z,94752.00
2023-12-12T06:15:50.749Z,94750.00
2023-12-12T06:16:50.777Z,94742.00
2023-12-12T06:17:50.832Z,94742.00
2023-12-12T06:18:50.829Z,94746.00
2023-12-12T06:19:50.946Z,94749.00
2023-12-12T06:20:50.783Z,94749.00
2023-12-12T06:21:50.821Z,94746.00
2023-12-12T06:22:50.852Z,94742.00
2023-12-12T06:23:50.833Z,94747.00
2023-12-12T06:24:50.855Z,94744.00
2023-12-12T06:25:50.904Z,94744.00
2023-12-12T06:26:50.867Z,94746.00
2023-12-12T06:27:50.878Z,94747.00
2023-12-12T06:28:50.880Z,94745.00
2023-12-12T06:29:50.900Z,94744.00
2023-12-12T06:30:50.926Z,94742.00
2023-12-12T06:31:51.003Z,94741.00
2023-12-12T06:32:51.114Z,94742.00
2023-12-12T06:33:51.022Z,94737.00
2023-12-12T06:34:50.893Z,94739.00
2023-12-12T06:35:54.403Z,94741.00
2023-12-12T06:36:50.854Z,94737.00
2023-12-12T06:37:50.941Z,94736.00
2023-12-12T06:38:50.861Z,94735.00
2023-12-12T06:39:50.859Z,94736.00
2023-12-12T06:40:50.868Z,94735.00
2023-12-12T06:41:51.836Z,94729.00
2023-12-12T06:42:50.838Z,94735.00
2023-12-12T06:43:50.793Z,94732.00
2023-12-12T06:44:50.777Z,94733.00
2023-12-12T06:45:50.803Z,94735.00
2023-12-12T06:46:50.849Z,94733.00
2023-12-12T06:47:50.875Z,94736.00
2023-12-12T06:48:50.791Z,94738.00
2023-12-12T06:49:50.812Z,94733.00
2023-12-12T06:50:50.776Z,94730.00
2023-12-12T06:51:50.825Z,94730.00
2023-12-12T06:52:50.735Z,94730.00
2023-12-12T06:53:53.311Z,94728.00
2023-12-12T06:54:50.918Z,94726.00
2023-12-12T06:55:50.887Z,94724.00
2023-12-12T06:56:50.901Z,94722.00
2023-12-12T06:57:50.956Z,94725.00
2023-12-12T06:58:50.966Z,94717.00
2023-12-12T06:59:50.977Z,94715.00
2023-12-12T07:00:51.030Z,94715.00
2023-12-12T07:01:51.011Z,94714.00
2023-12-12T07:02:51.025Z,94711.00
2023-12-12T07:03:51.011Z,94707.00
2023-12-12T07:04:51.070Z,94708.00
2023-12-12T07:05:51.099Z,94705.00
2023-12-12T07:06:51.109Z,94705.00
2023-12-12T07:07:51.041Z,94703.00
2023-12-12T07:08:52.106Z,94695.00
2023-12-12T07:09:59.272Z,94687.00
2023-12-12T07:10:52.027Z,94682.00
2023-12-12T07:11:51.017Z,94683.00
2023-12-12T07:12:51.260Z,94691.00
2023-12-12T07:13:51.020Z,94696.00
2023-12-12T07:14:51.151Z,94703.00
2023-12-12T07:15:50.978Z,94708.00
2023-12-12T07:16:50.982Z,94711.00
2023-12-12T07:17:50.978Z,94711.00
2023-12-12T07:18:51.013Z,94709.00
2023-12-12T07:19:51.084Z,94709.00
2023-12-12T07:20:50.917Z,94712.00
2023-12-12T07:21:50.911Z,94719.00
2023-12-12T07:22:50.907Z,94718.00
2023-12-12T07:23:50.904Z,94717.00
2023-12-12T07:24:50.911Z,94718.00
2023-12-12T07:25:50.936Z,94712.00
2023-12-12T07:26:50.999Z,94713.00
2023-12-12T07:27:51.088Z,94715.00
2023-12-12T07:28:51.144Z,94716.00
2023-12-12T07:29:51.077Z,94716.00
2023-12-12T07:30:51.080Z,94717.00
2023-12-12T07:31:51.184Z,94719.00
2023-12-12T07:32:51.301Z,94723.00
2023-12-12T07:33:51.322Z,94722.00
2023-12-12T07:34:51.331Z,94727.00
2023-12-12T07:35:51.405Z,94723.00
2023-12-12T07:36:51.443Z,94726.00
2023-12-12T07:37:51.651Z,94731.00
2023-12-12T07:38:51.547Z,94733.00
2023-12-12T07:39:51.603Z,94734.00
2023-12-12T07:40:51.762Z,94734.00
2023-12-12T07:41:52.041Z,94734.00
2023-12-12T07:42:51.777Z,94736.00
2023-12-12T07:43:51.836Z,94738.00
2023-12-12T07:44:51.962Z,94742.00
2023-12-12T07:45:52.104Z,94740.00
2023-12-12T07:46:52.020Z,94741.00
2023-12-12T07:47:52.533Z,94737.00
2023-12-12T07:48:52.249Z,94739.00
2023-12-12T07:49:52.243Z,94740.00
2023-12-12T07:50:52.270Z,94741.00
2023-12-12T07:51:52.340Z,94741.00
2023-12-12T07:52:52.515Z,94734.00
2023-12-12T07:53:52.391Z,94730.00
2023-12-12T07:54:52.597Z,94731.00
2023-12-12T07:55:52.533Z,94732.00
2023-12-12T07:56:52.594Z,94734.00
2023-12-12T07:57:52.683Z,94733.00
2023-12-12T07:58:52.756Z,94736.00
2023-12-12T07:59:54.298Z,94736.00
2023-12-12T08:00:52.850Z,94736.00
2023-12-12T08:01:53.023Z,94733.00
2023-12-12T08:02:52.922Z,94730.00
2023-12-12T08:03:53.030Z,94728.00
2023-12-12T08:04:53.071Z,94729.00
2023-12-12T08:05:53.142Z,94731.00
2023-12-12T08:06:53.170Z,94732.00
2023-12-12T08:07:53.234Z,94733.00
2023-12-12T08:08:53.243Z,94737.00
2023-12-12T08:09:53.355Z,94740.00
2023-12-12T08:10:53.387Z,94731.00
2023-12-12T08:11:53.453Z,94741.00
2023-12-12T08:12:53.474Z,94745.00
2023-12-12T08:13:53.762Z,94739.00
2023-12-12T08:14:53.584Z,94740.00
2023-12-12T08:15:53.640Z,94739.00
2023-12-12T08:16:53.714Z,94736.00
2023-12-12T08:17:53.955Z,94729.00
2023-12-12T08:18:53.847Z,94727.00
2023-12-12T08:19:53.973Z,94730.00
2023-12-12T08:21:19.070Z,94734.00
2023-12-12T08:21:53.953Z,94739.00
2023-12-12T08:22:53.911Z,94744.00
2023-12-12T08:23:54.113Z,94743.00
2023-12-12T08:24:54.128Z,94742.00
2023-12-12T08:25:53.841Z,94741.00
2023-12-12T08:26:53.837Z,94740.00
2023-12-12T08:27:53.844Z,94738.00
2023-12-12T08:28:53.854Z,94735.00
2023-12-12T08:29:53.811Z,94733.00
2023-12-12T08:30:53.883Z,94730.00
2023-12-12T08:31:53.856Z,94729.00
2023-12-12T08:32:53.921Z,94727.00
2023-12-12T08:33:53.780Z,94728.00
2023-12-12T08:34:53.811Z,94729.00
2023-12-12T08:35:53.748Z,94729.00
2023-12-12T08:36:53.753Z,94729.00
2023-12-12T08:37:53.698Z,94726.00
2023-12-12T08:38:53.759Z,94726.00
2023-12-12T08:39:53.679Z,94723.00
2023-12-12T08:40:57.528Z,94723.00
2023-12-12T08:41:53.691Z,94722.00
2023-12-12T08:42:53.611Z,94724.00
2023-12-12T08:43:53.560Z,94727.00
2023-12-12T08:44:53.573Z,94725.00
2023-12-12T08:45:53.534Z,94726.00
2023-12-12T08:46:53.520Z,94717.00
2023-12-12T08:47:53.546Z,94713.00
2023-12-12T08:48:53.510Z,94717.00
2023-12-12T08:49:53.581Z,94714.00
2023-12-12T08:50:53.470Z,94716.00
2023-12-12T08:51:53.472Z,94716.00
2023-12-12T08:52:53.436Z,94718.00
2023-12-12T08:53:53.436Z,94714.00
2023-12-12T08:54:53.395Z,94724.00
2023-12-12T08:55:53.400Z,94726.00
2023-12-12T08:56:53.400Z,94729.00
2023-12-12T08:57:53.412Z,94728.00
2023-12-12T08:58:53.475Z,94730.00
2023-12-12T08:59:53.436Z,94730.00
2023-12-12T09:00:53.428Z,94730.00
2023-12-12T09:01:53.413Z,94724.00
2023-12-12T09:02:53.348Z,94722.00
2023-12-12T09:03:53.304Z,94720.00
2023-12-12T09:04:53.366Z,94719.00
2023-12-12T09:05:53.426Z,94717.00
2023-12-12T09:06:53.465Z,94715.00
2023-12-12T09:07:53.537Z,94717.00
2023-12-12T09:08:54.332Z,94717.00
2023-12-12T09:09:53.582Z,94718.00
2023-12-12T09:10:53.626Z,94724.00
2023-12-12T09:11:53.641Z,94722.00
2023-12-12T09:12:53.672Z,94724.00
2023-12-12T09:13:53.699Z,94723.00
2023-12-12T09:14:53.752Z,94722.00
2023-12-12T09:15:53.751Z,94717.00
2023-12-12T09:16:53.790Z,94715.00
2023-12-12T09:18:05.912Z,94715.00
2023-12-12T09:18:54.990Z,94711.00
2023-12-12T09:19:54.085Z,94711.00
2023-12-12T09:20:54.013Z,94708.00
2023-12-12T09:21:53.920Z,94703.00
2023-12-12T09:22:53.856Z,94697.00
2023-12-12T09:23:53.783Z,94691.00
2023-12-12T09:24:53.745Z,94689.00
2023-12-12T09:25:53.761Z,94690.00
2023-12-12T09:26:53.751Z,94696.00
2023-12-12T09:27:53.687Z,94698.00
2023-12-12T09:28:53.691Z,94697.00
2023-12-12T09:29:55.916Z,94699.00
2023-12-12T09:30:53.800Z,94697.00
2023-12-12T09:31:53.670Z,94701.00
2023-12-12T09:32:53.756Z,94697.00
2023-12-12T09:33:53.731Z,94693.00
2023-12-12T09:34:53.680Z,94697.00
2023-12-12T09:35:53.671Z,94698.00
2023-12-12T09:36:53.702Z,94699.00
2023-12-12T09:37:53.724Z,94696.00
2023-12-12T09:38:53.695Z,94695.00
2023-12-12T09:39:53.692Z,94690.00
2023-12-12T09:40:53.694Z,94690.00
2023-12-12T09:41:53.666Z,94691.00
2023-12-12T09:42:53.690Z,94693.00
2023-12-12T09:43:53.686Z,94697.00
2023-12-12T09:44:53.702Z,94698.00
2023-12-12T09:45:53.704Z,94698.00
2023-12-12T09:46:53.714Z,94695.00
2023-12-12T09:47:53.736Z,94692.00
2023-12-12T09:48:54.169Z,94691.00
2023-12-12T09:49:53.721Z,94687.00
2023-12-12T09:50:53.671Z,94690.00
2023-12-12T09:51:53.730Z,94684.00
2023-12-12T09:52:53.715Z,94684.00
2023-12-12T09:53:53.699Z,94682.00
2023-12-12T09:54:53.694Z,94679.00
2023-12-12T09:55:53.731Z,94679.00
2023-12-12T09:56:53.720Z,94680.00
2023-12-12T09:57:53.739Z,94677.00
2023-12-12T09:58:53.735Z,94678.00
2023-12-12T09:59:53.723Z,94672.00
2023-12-12T10:00:53.770Z,94670.00
2023-12-12T10:01:53.784Z,94666.00
2023-12-12T10:02:53.725Z,94665.00
2023-12-12T10:03:53.717Z,94668.00
2023-12-12T10:04:53.718Z,94666.00
2023-12-12T10:05:53.801Z,94663.00
2023-12-12T10:06:53.741Z,94661.00
2023-12-12T10:08:00.325Z,94659.00
2023-12-12T10:08:54.749Z,94656.00
2023-12-12T10:09:53.755Z,94650.00
2023-12-12T10:10:53.837Z,94649.00
2023-12-12T10:11:53.740Z,94644.00
2023-12-12T10:12:53.732Z,94644.00
2023-12-12T10:13:53.743Z,94640.00
2023-12-12T10:14:53.735Z,94638.00
2023-12-12T10:15:53.720Z,94640.00
2023-12-12T10:16:53.742Z,94637.00
2023-12-12T10:17:53.793Z,94640.00
2023-12-12T10:18:53.765Z,94636.00
2023-12-12T10:19:53.883Z,94633.00
2023-12-12T10:20:53.820Z,94633.00
2023-12-12T10:21:53.706Z,94634.00
2023-12-12T10:22:53.845Z,94638.00
2023-12-12T10:23:53.809Z,94638.00
2023-12-12T10:24:53.670Z,94634.00
2023-12-12T10:25:53.701Z,94636.00
2023-12-12T10:26:53.756Z,94628.00
2023-12-12T10:27:53.676Z,94627.00
2023-12-12T10:28:53.655Z,94625.00
2023-12-12T10:29:53.704Z,94622.00
2023-12-12T10:30:53.855Z,94619.00
2023-12-12T10:31:53.672Z,94613.00
2023-12-12T10:32:53.660Z,94614.00
2023-12-12T10:33:53.683Z,94611.00
2023-12-12T10:34:53.786Z,94608.00
2023-12-12T10:35:53.678Z,94601.00
2023-12-12T10:36:53.648Z,94594.00
2023-12-12T10:37:53.744Z,94591.00
2023-12-12T10:38:53.691Z,94588.00
2023-12-12T10:39:53.628Z,94582.00
2023-12-12T10:40:53.690Z,94578.00
2023-12-12T10:42:15.646Z,94576.00
2023-12-12T10:42:53.627Z,94575.00
2023-12-12T10:43:54.544Z,94578.00
2023-12-12T10:44:53.591Z,94578.00
2023-12-12T10:45:53.561Z,94580.00
2023-12-12T10:46:53.546Z,94578.00
2023-12-12T10:47:53.580Z,94576.00
2023-12-12T10:48:53.902Z,94572.00
2023-12-12T10:49:53.576Z,94574.00
2023-12-12T10:50:53.551Z,94574.00
2023-12-12T10:51:53.520Z,94572.00
2023-12-12T10:52:53.991Z,94571.00
2023-12-12T10:53:53.482Z,94570.00
2023-12-12T10:54:53.502Z,94568.00
2023-12-12T10:55:53.478Z,94566.00
2023-12-12T10:56:53.471Z,94563.00
2023-12-12T10:57:53.484Z,94559.00
2023-12-12T10:58:53.488Z,94557.00
2023-12-12T11:00:00.055Z,94553.00
2023-12-12T11:00:54.504Z,94549.00
2023-12-12T11:01:53.482Z,94544.00
2023-12-12T11:03:02.465Z,94526.00
2023-12-12T11:03:53.440Z,94538.00
2023-12-12T11:04:53.392Z,94537.00
2023-12-12T11:05:53.402Z,94535.00
2023-12-12T11:06:53.353Z,94524.00
2023-12-12T11:07:53.355Z,94530.00
2023-12-12T11:08:53.317Z,94530.00
2023-12-12T11:09:53.341Z,94525.00
2023-12-12T11:10:53.287Z,94521.00
2023-12-12T11:11:53.270Z,94522.00
2023-12-12T11:12:53.270Z,94514.00
2023-12-12T11:13:53.240Z,94509.00
2023-12-12T11:14:53.213Z,94503.00
2023-12-12T11:15:53.217Z,94503.00
2023-12-12T11:16:53.241Z,94498.00
2023-12-12T11:17:53.237Z,94496.00
2023-12-12T11:18:53.200Z,94495.00
2023-12-12T11:19:53.245Z,94493.00
2023-12-12T11:20:53.268Z,94492.00
2023-12-12T11:21:53.149Z,94488.00
2023-12-12T11:22:53.401Z,94485.00
2023-12-12T11:23:53.099Z,94480.00
2023-12-12T11:24:53.053Z,94478.00
2023-12-12T11:25:53.137Z,94476.00
2023-12-12T11:26:53.039Z,94476.00
2023-12-12T11:27:53.074Z,94473.00
2023-12-12T11:28:53.059Z,94475.00
2023-12-12T11:29:53.033Z,94475.00
2023-12-12T11:30:53.000Z,94475.00
2023-12-12T11:31:53.108Z,94475.00
2023-12-12T11:32:53.602Z,94476.00
2023-12-12T11:33:53.119Z,94475.00
2023-12-12T11:34:52.965Z,94478.00
2023-12-12T11:35:53.091Z,94482.00
2023-12-12T11:36:52.958Z,94477.00
2023-12-12T11:37:52.889Z,94482.00
2023-12-12T11:38:52.872Z,94477.00
2023-12-12T11:39:52.868Z,94480.00
2023-12-12T11:40:52.843Z,94478.00
2023-12-12T11:41:52.867Z,94477.00
2023-12-12T11:42:52.826Z,94473.00
2023-12-12T11:43:52.792Z,94473.00
2023-12-12T11:44:52.788Z,94474.00